createdAt,value
2024-02-08T00:02:09.122Z,10.57
2024-02-08T00:04:36.533Z,10.30
2024-02-08T00:07:03.952Z,10.33
2024-02-08T00:09:31.309Z,10.37
2024-02-08T00:11:58.605Z,10.45
2024-02-08T00:14:39.819Z,10.48
2024-02-08T00:17:07.497Z,10.50
2024-02-08T00:19:34.991Z,10.34
2024-02-08T00:22:02.346Z,10.48
2024-02-08T00:24:29.660Z,10.58
2024-02-08T00:26:56.966Z,10.56
2024-02-08T00:29:24.300Z,10.64
2024-02-08T00:31:51.647Z,10.53
2024-02-08T00:34:19.000Z,10.73
2024-02-08T00:36:46.346Z,10.55
2024-02-08T00:39:13.668Z,10.44
2024-02-08T00:41:40.996Z,10.46
2024-02-08T00:44:08.364Z,10.36
2024-02-08T00:46:35.743Z,10.28
2024-02-08T00:49:03.118Z,10.61
2024-02-08T00:51:30.418Z,10.74
2024-02-08T00:53:57.735Z,10.74
2024-02-08T00:56:25.069Z,10.57
2024-02-08T00:58:54.374Z,10.70
2024-02-08T01:01:21.719Z,10.44
2024-02-08T01:03:49.194Z,10.41
2024-02-08T01:06:18.612Z,10.50
2024-02-08T01:08:45.987Z,10.28
2024-02-08T01:11:13.521Z,10.12
2024-02-08T01:13:40.954Z,10.15
2024-02-08T01:16:08.274Z,9.94
2024-02-08T01:18:35.655Z,10.01
2024-02-08T01:21:03.019Z,10.05
2024-02-08T01:23:30.333Z,10.21
2024-02-08T01:25:57.666Z,10.20
2024-02-08T01:28:24.991Z,10.20
2024-02-08T01:30:52.376Z,10.26
2024-02-08T01:33:19.740Z,10.29
2024-02-08T01:35:47.043Z,10.45
2024-02-08T01:41:27.101Z,10.36
2024-02-08T01:43:54.412Z,10.34
2024-02-08T01:46:21.762Z,10.63
2024-02-08T01:48:51.123Z,10.83
2024-02-08T01:51:18.463Z,10.97
2024-02-08T01:53:45.794Z,10.67
2024-02-08T01:56:13.252Z,10.61
2024-02-08T01:58:40.662Z,10.80
2024-02-08T02:01:07.999Z,10.37
2024-02-08T02:03:35.433Z,10.17
2024-02-08T02:06:02.916Z,10.56
2024-02-08T02:08:30.259Z,10.54
2024-02-08T02:10:57.662Z,10.32
2024-02-08T02:13:25.034Z,10.47
2024-02-08T02:15:52.361Z,10.16
2024-02-08T02:18:19.825Z,10.38
2024-02-08T02:20:47.240Z,10.26
2024-02-08T02:23:14.612Z,10.22
2024-02-08T02:25:41.945Z,10.37
2024-02-08T02:28:09.307Z,10.55
2024-02-08T02:30:36.734Z,10.36
2024-02-08T02:33:04.152Z,10.21
2024-02-08T02:35:31.508Z,10.24
2024-02-08T02:37:58.837Z,10.22
2024-02-08T02:40:26.220Z,10.41
2024-02-08T02:42:53.558Z,10.46
2024-02-08T02:45:20.866Z,10.44
2024-02-08T02:47:48.246Z,10.68
2024-02-08T02:50:15.726Z,10.69
2024-02-08T02:52:43.151Z,10.91
2024-02-08T02:55:10.474Z,10.95
2024-02-08T02:57:37.790Z,10.94
2024-02-08T03:00:05.114Z,10.98
2024-02-08T03:02:32.468Z,10.89
2024-02-08T03:04:59.836Z,10.87
2024-02-08T03:07:27.251Z,10.66
2024-02-08T03:09:54.621Z,10.73
2024-02-08T03:12:21.945Z,10.93
2024-02-08T03:14:49.245Z,11.08
2024-02-08T03:23:43.163Z,10.71
2024-02-08T03:26:10.496Z,10.36
2024-02-08T03:28:37.875Z,10.51
2024-02-08T03:31:05.214Z,10.27
2024-02-08T03:33:32.591Z,10.20
2024-02-08T03:35:59.916Z,10.42
2024-02-08T03:38:27.233Z,10.30
2024-02-08T03:40:54.604Z,10.24
2024-02-08T03:43:21.921Z,10.07
2024-02-08T03:45:49.246Z,10.11
2024-02-08T03:48:16.692Z,10.16
2024-02-08T03:50:44.219Z,10.13
2024-02-08T03:53:11.702Z,10.04
2024-02-08T03:55:39.135Z,10.09
2024-02-08T03:58:06.482Z,10.16
2024-02-08T04:00:33.813Z,10.33
2024-02-08T04:03:02.831Z,10.36
2024-02-08T04:05:30.267Z,10.26
2024-02-08T04:07:57.620Z,10.16
2024-02-08T04:10:24.962Z,10.33
2024-02-08T04:12:52.314Z,10.32
2024-02-08T04:15:28.845Z,10.45
2024-02-08T04:17:56.240Z,10.47
2024-02-08T04:20:23.588Z,10.43
2024-02-08T04:22:50.981Z,10.31
2024-02-08T04:25:18.317Z,10.26
2024-02-08T04:27:45.640Z,10.35
2024-02-08T04:30:12.967Z,10.09
2024-02-08T04:32:40.440Z,10.24
2024-02-08T04:35:07.998Z,10.02
2024-02-08T04:37:35.443Z,10.12
2024-02-08T04:40:02.783Z,10.17
2024-02-08T04:42:30.103Z,10.12
2024-02-08T04:44:57.416Z,10.16
2024-02-08T04:47:26.775Z,10.36
2024-02-08T04:49:54.127Z,10.32
2024-02-08T04:52:21.534Z,10.25
2024-02-08T04:54:48.873Z,10.33
2024-02-08T04:57:16.196Z,10.56
2024-02-08T04:59:43.632Z,10.37
2024-02-08T05:02:11.079Z,10.37
2024-02-08T05:04:38.637Z,10.59
2024-02-08T05:07:06.187Z,10.53
2024-02-08T05:09:33.695Z,10.56
2024-02-08T05:12:01.008Z,10.56
2024-02-08T05:14:28.448Z,10.63
2024-02-08T05:16:56.461Z,10.71
2024-02-08T05:19:23.995Z,10.53
2024-02-08T05:21:51.376Z,10.65
2024-02-08T05:24:18.708Z,10.42
2024-02-08T05:26:46.048Z,10.42
2024-02-08T05:29:13.369Z,10.31
2024-02-08T05:31:40.909Z,10.39
2024-02-08T05:34:16.398Z,10.38
2024-02-08T05:36:45.417Z,10.61
2024-02-08T05:39:12.823Z,10.46
2024-02-08T05:41:40.123Z,10.46
2024-02-08T05:44:07.453Z,10.59
2024-02-08T05:46:34.855Z,10.51
2024-02-08T05:49:02.273Z,10.60
2024-02-08T05:51:29.609Z,10.60
2024-02-08T05:53:56.938Z,10.51
2024-02-08T05:56:24.228Z,10.45
2024-02-08T05:58:51.541Z,10.57
2024-02-08T06:01:18.977Z,10.65
2024-02-08T06:03:46.427Z,10.31
2024-02-08T06:06:13.896Z,10.49
2024-02-08T06:08:41.508Z,10.35
2024-02-08T06:11:08.858Z,10.39
2024-02-08T06:13:36.306Z,10.41
2024-02-08T06:16:03.693Z,10.61
2024-02-08T06:18:31.121Z,10.61
2024-02-08T06:20:58.472Z,10.44
2024-02-08T06:23:25.817Z,10.47
2024-02-08T06:25:53.152Z,10.56
2024-02-08T06:28:20.629Z,10.34
2024-02-08T06:30:48.224Z,10.12
2024-02-08T06:33:15.720Z,10.21
2024-02-08T06:35:43.065Z,10.20
2024-02-08T06:38:12.358Z,10.35
2024-02-08T06:40:39.762Z,10.43
2024-02-08T06:43:07.143Z,10.39
2024-02-08T06:45:34.523Z,10.59
2024-02-08T06:48:02.022Z,10.49
2024-02-08T06:50:29.451Z,10.45
2024-02-08T06:52:56.759Z,10.40
2024-02-08T06:55:24.199Z,10.45
2024-02-08T06:57:51.623Z,10.47
2024-02-08T07:00:18.965Z,10.67
2024-02-08T07:02:46.311Z,10.60
2024-02-08T07:05:13.886Z,10.24
2024-02-08T07:07:43.411Z,10.33
2024-02-08T07:10:10.812Z,10.26
2024-02-08T07:12:38.211Z,10.41
2024-02-08T07:15:05.516Z,10.38
2024-02-08T07:17:32.870Z,10.40
2024-02-08T07:20:00.409Z,10.29
2024-02-08T07:22:27.960Z,10.51
2024-02-08T07:24:55.348Z,10.54
2024-02-08T07:27:22.658Z,10.43
2024-02-08T07:29:49.988Z,10.42
2024-02-08T07:32:17.278Z,10.41
2024-02-08T07:34:44.802Z,10.62
2024-02-08T07:37:12.357Z,10.28
2024-02-08T07:39:39.696Z,10.56
2024-02-08T07:42:07.014Z,10.81
2024-02-08T07:44:37.299Z,10.59
2024-02-08T07:47:05.865Z,10.46
2024-02-08T07:49:33.300Z,10.10
2024-02-08T07:52:00.811Z,10.20
2024-02-08T07:54:28.137Z,10.19
2024-02-08T07:56:57.498Z,10.45
2024-02-08T07:59:24.859Z,10.59
2024-02-08T08:01:52.570Z,10.47
2024-02-08T08:04:20.124Z,10.61
2024-02-08T08:06:47.723Z,10.46
2024-02-08T08:09:15.517Z,10.26
2024-02-08T08:11:42.913Z,10.27
2024-02-08T08:14:10.272Z,10.42
2024-02-08T08:16:37.681Z,10.50
2024-02-08T08:19:05.165Z,10.39
2024-02-08T08:21:32.516Z,10.22
2024-02-08T08:23:59.841Z,9.87
2024-02-08T08:26:27.187Z,9.95
2024-02-08T08:28:54.506Z,10.05
2024-02-08T08:31:21.890Z,10.35
2024-02-08T08:33:49.282Z,10.40
2024-02-08T08:36:16.669Z,10.62
2024-02-08T08:38:43.989Z,10.67
2024-02-08T08:41:13.484Z,10.83
2024-02-08T08:43:41.013Z,10.76
2024-02-08T08:46:08.445Z,10.83
2024-02-08T08:48:35.923Z,11.04
2024-02-08T08:51:03.291Z,11.08
2024-02-08T08:53:30.619Z,10.86
2024-02-08T08:55:58.011Z,10.81
2024-02-08T08:58:25.395Z,11.10
2024-02-08T09:00:52.767Z,11.22
2024-02-08T09:03:20.124Z,10.93
2024-02-08T09:05:47.443Z,10.88
2024-02-08T09:08:14.861Z,11.17
2024-02-08T09:10:42.881Z,11.33
2024-02-08T09:13:10.575Z,11.42
2024-02-08T09:15:37.957Z,11.53
2024-02-08T09:18:05.314Z,11.22
2024-02-08T09:20:32.721Z,11.35
2024-02-08T09:23:00.074Z,11.61
2024-02-08T09:25:35.671Z,11.29
2024-02-08T09:28:07.484Z,11.54
2024-02-08T09:30:36.847Z,11.25
2024-02-08T09:33:04.227Z,11.42
2024-02-08T09:35:31.822Z,11.16
2024-02-08T09:37:59.287Z,11.27
2024-02-08T09:40:26.744Z,11.19
2024-02-08T09:42:56.455Z,11.61
2024-02-08T09:45:23.905Z,11.43
2024-02-08T09:47:51.293Z,11.38
2024-02-08T09:50:18.643Z,11.37
2024-02-08T09:52:50.141Z,11.31
2024-02-08T09:55:19.510Z,11.47
2024-02-08T09:57:47.305Z,11.55
2024-02-08T10:00:14.664Z,11.49
2024-02-08T10:02:43.989Z,11.54
2024-02-08T10:05:11.406Z,11.76
2024-02-08T10:07:38.977Z,11.76
2024-02-08T10:10:06.369Z,11.90
2024-02-08T10:12:33.718Z,12.04
2024-02-08T10:15:01.830Z,12.27
2024-02-08T10:17:29.620Z,12.21
2024-02-08T10:19:57.084Z,12.11
2024-02-08T10:22:24.481Z,12.17
2024-02-08T10:24:51.841Z,12.13
2024-02-08T10:27:19.174Z,12.17
2024-02-08T10:29:46.501Z,12.28
2024-02-08T10:32:13.820Z,12.40
2024-02-08T10:34:42.244Z,12.42
2024-02-08T10:37:10.044Z,12.60
2024-02-08T10:39:37.382Z,12.56
2024-02-08T10:42:04.699Z,12.72
2024-02-08T10:44:32.029Z,12.77
2024-02-08T10:47:11.576Z,13.03
2024-02-08T10:49:39.082Z,13.12
2024-02-08T10:52:06.619Z,13.24
2024-02-08T10:54:36.763Z,13.45
2024-02-08T10:57:05.466Z,13.69
2024-02-08T10:59:32.794Z,13.50
2024-02-08T11:02:00.292Z,13.63
2024-02-08T11:04:27.732Z,13.78
2024-02-08T11:06:55.238Z,13.81
2024-02-08T11:09:22.606Z,14.03
2024-02-08T11:11:49.929Z,14.00
2024-02-08T11:14:17.276Z,13.87
2024-02-08T11:16:44.634Z,13.87
2024-02-08T11:19:12.083Z,14.05
2024-02-08T11:21:39.452Z,14.34
2024-02-08T11:24:06.778Z,14.43
2024-02-08T11:26:34.275Z,14.52
2024-02-08T11:29:01.761Z,14.35
2024-02-08T11:31:29.187Z,14.48
2024-02-08T11:33:56.830Z,14.45
2024-02-08T11:36:24.348Z,14.38
2024-02-08T11:38:51.671Z,14.39
2024-02-08T11:41:18.995Z,14.42
2024-02-08T11:43:46.358Z,14.40
2024-02-08T11:46:13.730Z,15.03
2024-02-08T11:48:41.233Z,14.64
2024-02-08T11:51:08.692Z,14.58
2024-02-08T11:53:36.038Z,14.39
2024-02-08T11:56:03.357Z,14.34
2024-02-08T11:58:30.754Z,14.48
2024-02-08T12:00:58.257Z,14.57
2024-02-08T12:03:25.708Z,15.02
2024-02-08T12:05:53.042Z,14.74
2024-02-08T12:08:21.412Z,14.96
2024-02-08T12:10:49.838Z,14.43
2024-02-08T12:13:17.273Z,13.12
2024-02-08T12:15:44.652Z,13.03
2024-02-08T12:18:12.117Z,12.40
2024-02-08T12:20:39.511Z,12.54
2024-02-08T12:23:06.819Z,12.32
2024-02-08T12:25:34.244Z,12.52
2024-02-08T12:28:01.582Z,12.60
2024-02-08T12:30:28.923Z,13.07
2024-02-08T12:32:56.274Z,12.90
2024-02-08T12:35:23.660Z,12.59
2024-02-08T12:37:50.981Z,12.91
2024-02-08T12:40:18.441Z,12.81
2024-02-08T12:42:45.794Z,12.73
2024-02-08T12:45:13.152Z,12.93
2024-02-08T12:47:40.508Z,12.88
2024-02-08T12:50:14.991Z,13.33
2024-02-08T12:52:49.070Z,13.27
2024-02-08T12:55:16.414Z,13.48
2024-02-08T12:57:43.796Z,13.72
2024-02-08T13:00:11.104Z,14.03
2024-02-08T13:02:38.408Z,14.14
2024-02-08T13:05:06.088Z,14.40
2024-02-08T13:07:36.810Z,14.05
2024-02-08T13:10:06.023Z,14.11
2024-02-08T13:12:33.412Z,14.23
2024-02-08T13:15:00.732Z,14.83
2024-02-08T13:17:28.167Z,14.51
2024-02-08T13:19:55.652Z,14.11
2024-02-08T13:22:23.033Z,13.23
2024-02-08T13:24:50.915Z,12.45
2024-02-08T13:27:18.243Z,12.46
2024-02-08T13:29:45.553Z,12.58
2024-02-08T13:32:12.874Z,12.69
2024-02-08T13:34:40.257Z,13.09
2024-02-08T13:37:07.659Z,12.96
2024-02-08T13:39:34.996Z,13.37
2024-02-08T13:42:02.399Z,12.90
2024-02-08T13:44:29.816Z,13.14
2024-02-08T13:46:57.240Z,12.84
2024-02-08T13:49:24.741Z,13.23
2024-02-08T13:51:52.256Z,13.60
2024-02-08T13:54:19.616Z,13.70
2024-02-08T13:56:46.975Z,14.08
2024-02-08T13:59:14.342Z,14.27
2024-02-08T14:01:41.803Z,14.60
2024-02-08T14:04:09.257Z,14.62
2024-02-08T14:06:36.649Z,14.81
2024-02-08T14:09:03.961Z,14.93
2024-02-08T14:11:31.324Z,14.87
2024-02-08T14:13:58.648Z,15.07
2024-02-08T14:16:25.982Z,15.08
2024-02-08T14:18:53.560Z,15.53
2024-02-08T14:21:21.145Z,15.31
2024-02-08T14:23:48.442Z,15.06
2024-02-08T14:26:15.761Z,15.23
2024-02-08T14:28:43.097Z,15.29
2024-02-08T14:31:10.489Z,15.30
2024-02-08T14:33:38.650Z,15.33
2024-02-08T14:36:05.976Z,15.66
2024-02-08T14:38:33.309Z,15.68
2024-02-08T14:41:00.617Z,15.61
2024-02-08T14:43:27.935Z,15.75
2024-02-08T14:45:55.288Z,15.80
2024-02-08T14:48:22.869Z,15.78
2024-02-08T14:50:50.173Z,15.83
2024-02-08T14:53:17.485Z,15.70
2024-02-08T14:55:44.821Z,15.62
2024-02-08T14:58:12.183Z,15.63
2024-02-08T15:00:39.539Z,15.65
2024-02-08T15:03:06.922Z,15.47
2024-02-08T15:05:34.372Z,15.51
2024-02-08T15:08:01.753Z,15.54
2024-02-08T15:10:29.107Z,15.17
2024-02-08T15:12:56.443Z,15.04
2024-02-08T15:15:23.895Z,14.88
2024-02-08T15:17:51.236Z,14.97
2024-02-08T15:20:18.615Z,14.28
2024-02-08T15:22:46.122Z,14.30
2024-02-08T15:25:14.594Z,14.25
2024-02-08T15:27:41.959Z,14.39
2024-02-08T15:30:09.293Z,14.31
2024-02-08T15:32:36.626Z,14.41
2024-02-08T15:35:04.086Z,14.47
2024-02-08T15:37:31.521Z,14.53
2024-02-08T15:39:58.966Z,14.73
2024-02-08T15:42:26.291Z,14.69
2024-02-08T15:44:54.561Z,14.72
2024-02-08T15:47:22.411Z,14.70
2024-02-08T15:49:49.885Z,14.82
2024-02-08T15:52:17.749Z,14.98
2024-02-08T15:54:45.725Z,14.77
2024-02-08T15:57:13.834Z,14.81
2024-02-08T15:59:41.277Z,14.99
2024-02-08T16:02:08.792Z,15.12
2024-02-08T16:04:36.254Z,14.82
2024-02-08T16:07:03.763Z,14.98
2024-02-08T16:09:31.200Z,14.94
2024-02-08T16:11:58.544Z,14.90
2024-02-08T16:14:25.857Z,14.99
2024-02-08T16:16:53.171Z,15.02
2024-02-08T16:19:20.680Z,15.07
2024-02-08T16:21:48.073Z,14.96
2024-02-08T16:24:15.448Z,14.96
2024-02-08T16:26:42.809Z,14.96
2024-02-08T16:29:10.197Z,14.87
2024-02-08T16:31:37.698Z,14.78
2024-02-08T16:34:05.122Z,14.77
2024-02-08T16:36:32.518Z,14.69
2024-02-08T16:39:01.800Z,14.68
2024-02-08T16:41:29.129Z,14.60
2024-02-08T16:43:56.445Z,14.54
2024-02-08T16:46:24.114Z,14.59
2024-02-08T16:48:51.484Z,14.41
2024-02-08T16:51:18.843Z,14.39
2024-02-08T16:53:46.219Z,14.47
2024-02-08T16:56:13.545Z,14.43
2024-02-08T16:58:40.921Z,14.62
2024-02-08T17:01:08.363Z,14.48
2024-02-08T17:03:35.719Z,14.46
2024-02-08T17:06:03.149Z,14.60
2024-02-08T17:08:30.476Z,14.56
2024-02-08T17:10:57.810Z,14.51
2024-02-08T17:13:46.546Z,14.43
2024-02-08T17:16:33.142Z,14.39
2024-02-08T17:19:19.803Z,14.39
2024-02-08T17:22:05.846Z,14.40
2024-02-08T17:24:52.170Z,14.62
2024-02-08T17:27:37.881Z,14.61
2024-02-08T17:30:23.991Z,14.76
2024-02-08T17:33:09.682Z,14.66
2024-02-08T17:35:58.004Z,14.75
2024-02-08T17:38:44.084Z,14.76
2024-02-08T17:41:30.488Z,14.78
2024-02-08T17:44:16.634Z,14.74
2024-02-08T17:47:02.335Z,14.75
2024-02-08T17:49:48.675Z,14.60
2024-02-08T17:52:34.477Z,14.48
2024-02-08T17:55:20.896Z,14.35
2024-02-08T17:58:06.690Z,14.38
2024-02-08T18:00:52.694Z,14.38
2024-02-08T18:03:38.886Z,14.60
2024-02-08T18:06:25.477Z,14.67
2024-02-08T18:09:11.413Z,14.79
2024-02-08T18:11:59.326Z,14.75
2024-02-08T18:14:45.286Z,14.75
2024-02-08T18:17:31.472Z,14.81
2024-02-08T18:20:17.392Z,14.82
2024-02-08T18:23:04.091Z,14.95
2024-02-08T18:25:49.984Z,14.96
2024-02-08T18:28:36.131Z,14.89
2024-02-08T18:31:21.814Z,14.94
2024-02-08T18:34:08.025Z,14.93
2024-02-08T18:36:54.046Z,14.82
2024-02-08T18:39:40.332Z,14.96
2024-02-08T18:42:26.089Z,14.92
2024-02-08T18:45:12.115Z,14.83
2024-02-08T18:47:57.874Z,14.78
2024-02-08T18:50:44.381Z,14.75
2024-02-08T18:53:30.177Z,14.69
2024-02-08T18:56:16.456Z,14.63
2024-02-08T18:59:04.303Z,14.49
2024-02-08T19:01:57.369Z,14.77
2024-02-08T19:04:46.858Z,14.82
2024-02-08T19:07:33.139Z,14.63
2024-02-08T19:10:19.021Z,14.79
2024-02-08T19:13:05.087Z,14.76
2024-02-08T19:15:50.959Z,14.93
2024-02-08T19:18:37.102Z,14.68
2024-02-08T19:21:22.893Z,14.59
2024-02-08T19:24:09.113Z,14.62
2024-02-08T19:26:54.936Z,14.55
2024-02-08T19:29:40.811Z,14.52
2024-02-08T19:32:26.638Z,14.36
2024-02-08T19:35:12.946Z,14.40
2024-02-08T19:37:59.015Z,14.46
2024-02-08T19:40:45.358Z,14.09
2024-02-08T19:43:31.320Z,14.06
2024-02-08T19:46:17.306Z,14.09
2024-02-08T19:49:03.191Z,14.06
2024-02-08T19:51:49.255Z,14.01
2024-02-08T19:54:35.045Z,13.82
2024-02-08T19:57:21.427Z,13.91
2024-02-08T20:00:07.397Z,14.00
2024-02-08T20:02:54.085Z,14.07
2024-02-08T20:05:40.742Z,14.09
2024-02-08T20:08:27.032Z,14.12
2024-02-08T20:11:12.832Z,14.38
2024-02-08T20:13:58.794Z,14.27
2024-02-08T20:16:44.712Z,13.83
2024-02-08T20:19:31.103Z,14.15
2024-02-08T20:22:16.847Z,13.88
2024-02-08T20:25:03.131Z,13.95
2024-02-08T20:27:48.932Z,14.01
2024-02-08T20:30:34.873Z,14.07
2024-02-08T20:33:20.878Z,14.14
2024-02-08T20:36:07.120Z,14.22
2024-02-08T20:38:52.816Z,14.18
2024-02-08T20:41:39.230Z,14.19
2024-02-08T20:44:24.914Z,14.38
2024-02-08T20:47:11.167Z,14.27
2024-02-08T20:49:57.755Z,13.80
2024-02-08T20:52:43.776Z,13.67
2024-02-08T20:55:29.582Z,13.52
2024-02-08T20:58:16.198Z,13.45
2024-02-08T21:01:02.234Z,13.59
2024-02-08T21:03:50.212Z,13.60
2024-02-08T21:06:35.981Z,13.62
2024-02-08T21:09:23.885Z,13.73
2024-02-08T21:12:09.581Z,13.93
2024-02-08T21:14:55.737Z,13.87
2024-02-08T21:17:41.539Z,13.95
2024-02-08T21:20:27.796Z,14.07
2024-02-08T21:23:13.524Z,14.08
2024-02-08T21:25:59.894Z,14.24
2024-02-08T21:28:45.812Z,14.17
2024-02-08T21:31:31.970Z,14.36
2024-02-08T21:34:19.885Z,14.33
2024-02-08T21:37:06.213Z,14.52
2024-02-08T21:39:51.837Z,14.57
2024-02-08T21:42:38.080Z,14.64
2024-02-08T21:45:23.781Z,14.57
2024-02-08T21:48:10.082Z,14.54
2024-02-08T21:50:55.949Z,14.59
2024-02-08T21:53:42.188Z,14.56
2024-02-08T21:56:27.930Z,14.47
2024-02-08T21:59:14.176Z,14.35
2024-02-08T22:01:59.892Z,14.41
2024-02-08T22:04:46.131Z,14.42
2024-02-08T22:07:31.948Z,14.41
2024-02-08T22:10:18.070Z,14.39
2024-02-08T22:13:05.148Z,14.33
2024-02-08T22:15:51.536Z,14.32
2024-02-08T22:18:37.206Z,14.33
2024-02-08T22:21:23.331Z,14.33
2024-02-08T22:24:10.403Z,14.45
2024-02-08T22:26:56.926Z,14.68
2024-02-08T22:29:43.095Z,14.49
2024-02-08T22:32:28.823Z,14.44
2024-02-08T22:35:17.409Z,14.19
2024-02-08T22:38:03.410Z,14.19
2024-02-08T22:40:49.474Z,14.22
2024-02-08T22:43:35.290Z,14.01
2024-02-08T22:46:21.718Z,14.05
2024-02-08T22:49:09.328Z,14.20
2024-02-08T22:51:55.614Z,14.02
2024-02-08T22:54:41.494Z,14.03
2024-02-08T22:57:27.649Z,14.12
2024-02-08T23:00:13.404Z,14.16
2024-02-08T23:02:59.529Z,14.24
2024-02-08T23:05:45.234Z,14.41
2024-02-08T23:08:31.468Z,14.36
2024-02-08T23:11:16.924Z,14.38
2024-02-08T23:14:03.064Z,14.23
2024-02-08T23:16:49.397Z,14.21
2024-02-08T23:19:35.101Z,14.00
2024-02-08T23:22:22.077Z,13.90
2024-02-08T23:25:08.706Z,14.07
2024-02-08T23:27:54.606Z,13.98
2024-02-08T23:30:40.340Z,14.04
2024-02-08T23:33:26.613Z,13.92
2024-02-08T23:36:12.500Z,13.80
2024-02-08T23:38:58.806Z,13.98
2024-02-08T23:41:44.426Z,13.53
2024-02-08T23:44:30.697Z,13.82
2024-02-08T23:47:16.503Z,13.45
2024-02-08T23:50:02.667Z,13.53
2024-02-08T23:52:48.483Z,13.43
2024-02-08T23:55:34.763Z,13.32
2024-02-08T23:58:20.525Z,13.19
